sensor_id;sensor_type;location;lat;lon;timestamp;temperature;humidity
48686;DHT22;34485;51.536;3.816;2024-02-04T00:00:48;10.10;99.90
48686;DHT22;34485;51.536;3.816;2024-02-04T00:03:14;10.10;99.90
48686;DHT22;34485;51.536;3.816;2024-02-04T00:05:39;10.20;99.90
48686;DHT22;34485;51.536;3.816;2024-02-04T00:08:05;10.10;99.90
48686;DHT22;34485;51.536;3.816;2024-02-04T00:25:09;10.10;99.90
48686;DHT22;34485;51.536;3.816;2024-02-04T00:27:37;10.00;99.90
48686;DHT22;34485;51.536;3.816;2024-02-04T00:30:04;9.90;99.90
48686;DHT22;34485;51.536;3.816;2024-02-04T00:32:30;9.90;99.90
48686;DHT22;34485;51.536;3.816;2024-02-04T00:34:55;9.90;99.90
48686;DHT22;34485;51.536;3.816;2024-02-04T00:37:21;9.80;99.90
48686;DHT22;34485;51.536;3.816;2024-02-04T00:39:47;9.80;99.90
48686;DHT22;34485;51.536;3.816;2024-02-04T00:42:13;9.80;99.90
48686;DHT22;34485;51.536;3.816;2024-02-04T00:44:38;9.70;99.90
48686;DHT22;34485;51.536;3.816;2024-02-04T00:47:04;9.70;99.90
48686;DHT22;34485;51.536;3.816;2024-02-04T00:49:30;9.70;99.90
48686;DHT22;34485;51.536;3.816;2024-02-04T00:51:55;9.80;99.90
48686;DHT22;34485;51.536;3.816;2024-02-04T00:54:21;9.70;99.90
48686;DHT22;34485;51.536;3.816;2024-02-04T00:56:46;9.70;99.90
48686;DHT22;34485;51.536;3.816;2024-02-04T00:59:12;9.70;99.90
48686;DHT22;34485;51.536;3.816;2024-02-04T01:01:38;9.80;99.90
48686;DHT22;34485;51.536;3.816;2024-02-04T01:04:04;9.80;99.90
48686;DHT22;34485;51.536;3.816;2024-02-04T01:06:30;9.80;99.90
48686;DHT22;34485;51.536;3.816;2024-02-04T01:08:58;9.80;99.90
48686;DHT22;34485;51.536;3.816;2024-02-04T01:11:24;9.80;99.90
48686;DHT22;34485;51.536;3.816;2024-02-04T01:13:50;9.80;99.90
48686;DHT22;34485;51.536;3.816;2024-02-04T01:16:15;9.80;99.90
48686;DHT22;34485;51.536;3.816;2024-02-04T01:18:41;9.80;99.90
48686;DHT22;34485;51.536;3.816;2024-02-04T01:21:07;9.80;99.90
48686;DHT22;34485;51.536;3.816;2024-02-04T01:23:34;9.80;99.90
48686;DHT22;34485;51.536;3.816;2024-02-04T01:26:00;9.80;99.90
48686;DHT22;34485;51.536;3.816;2024-02-04T01:28:25;9.80;99.90
48686;DHT22;34485;51.536;3.816;2024-02-04T01:30:51;9.70;99.90
48686;DHT22;34485;51.536;3.816;2024-02-04T01:33:17;9.70;99.90
48686;DHT22;34485;51.536;3.816;2024-02-04T01:35:43;9.60;99.90
48686;DHT22;34485;51.536;3.816;2024-02-04T01:38:08;9.60;99.90
48686;DHT22;34485;51.536;3.816;2024-02-04T01:40:34;9.60;99.90
48686;DHT22;34485;51.536;3.816;2024-02-04T01:43:00;9.60;99.90
48686;DHT22;34485;51.536;3.816;2024-02-04T01:45:25;9.60;99.90
48686;DHT22;34485;51.536;3.816;2024-02-04T01:47:52;9.60;99.90
48686;DHT22;34485;51.536;3.816;2024-02-04T01:50:18;9.60;99.90
48686;DHT22;34485;51.536;3.816;2024-02-04T01:52:44;9.70;99.90
48686;DHT22;34485;51.536;3.816;2024-02-04T01:55:10;9.70;99.90
48686;DHT22;34485;51.536;3.816;2024-02-04T01:57:36;9.70;99.90
48686;DHT22;34485;51.536;3.816;2024-02-04T02:00:03;9.70;99.90
48686;DHT22;34485;51.536;3.816;2024-02-04T02:02:30;9.70;99.90
48686;DHT22;34485;51.536;3.816;2024-02-04T02:04:57;9.70;99.90
48686;DHT22;34485;51.536;3.816;2024-02-04T02:07:23;9.70;99.90
48686;DHT22;34485;51.536;3.816;2024-02-04T02:09:53;9.70;99.90
48686;DHT22;34485;51.536;3.816;2024-02-04T02:12:32;9.70;99.90
48686;DHT22;34485;51.536;3.816;2024-02-04T02:15:18;9.70;99.90
48686;DHT22;34485;51.536;3.816;2024-02-04T02:20:29;9.80;99.90
48686;DHT22;34485;51.536;3.816;2024-02-04T02:23:06;9.80;99.90
48686;DHT22;34485;51.536;3.816;2024-02-04T02:25:33;9.80;99.90
48686;DHT22;34485;51.536;3.816;2024-02-04T02:28:01;9.80;99.90
48686;DHT22;34485;51.536;3.816;2024-02-04T02:30:27;9.80;99.90
48686;DHT22;34485;51.536;3.816;2024-02-04T02:32:53;9.80;99.90
48686;DHT22;34485;51.536;3.816;2024-02-04T02:35:19;9.80;99.90
48686;DHT22;34485;51.536;3.816;2024-02-04T02:40:46;9.80;99.90
48686;DHT22;34485;51.536;3.816;2024-02-04T02:43:13;9.80;99.90
48686;DHT22;34485;51.536;3.816;2024-02-04T02:45:41;9.80;99.90
48686;DHT22;34485;51.536;3.816;2024-02-04T02:48:08;9.80;99.90
48686;DHT22;34485;51.536;3.816;2024-02-04T02:50:38;9.80;99.90
48686;DHT22;34485;51.536;3.816;2024-02-04T02:53:04;9.80;99.90
48686;DHT22;34485;51.536;3.816;2024-02-04T02:55:30;9.80;99.90
48686;DHT22;34485;51.536;3.816;2024-02-04T02:57:56;9.90;99.90
48686;DHT22;34485;51.536;3.816;2024-02-04T03:00:21;9.80;99.90
48686;DHT22;34485;51.536;3.816;2024-02-04T03:02:47;9.80;99.90
48686;DHT22;34485;51.536;3.816;2024-02-04T03:05:15;9.80;99.90
48686;DHT22;34485;51.536;3.816;2024-02-04T03:07:41;9.90;99.90
48686;DHT22;34485;51.536;3.816;2024-02-04T03:10:08;9.90;99.90
48686;DHT22;34485;51.536;3.816;2024-02-04T03:12:34;9.90;99.90
48686;DHT22;34485;51.536;3.816;2024-02-04T03:14:59;9.90;99.90
48686;DHT22;34485;51.536;3.816;2024-02-04T03:17:25;9.90;99.90
48686;DHT22;34485;51.536;3.816;2024-02-04T03:19:51;10.00;99.90
48686;DHT22;34485;51.536;3.816;2024-02-04T03:22:22;10.00;99.90
48686;DHT22;34485;51.536;3.816;2024-02-04T03:24:48;10.00;99.90
48686;DHT22;34485;51.536;3.816;2024-02-04T03:27:17;10.10;99.90
48686;DHT22;34485;51.536;3.816;2024-02-04T03:29:43;10.10;99.90
48686;DHT22;34485;51.536;3.816;2024-02-04T03:32:11;10.10;99.90
48686;DHT22;34485;51.536;3.816;2024-02-04T03:34:37;10.10;99.90
48686;DHT22;34485;51.536;3.816;2024-02-04T03:37:03;10.10;99.90
48686;DHT22;34485;51.536;3.816;2024-02-04T03:39:28;10.10;99.90
48686;DHT22;34485;51.536;3.816;2024-02-04T03:41:54;10.00;99.90
48686;DHT22;34485;51.536;3.816;2024-02-04T03:44:20;10.10;99.90
48686;DHT22;34485;51.536;3.816;2024-02-04T03:46:49;10.10;99.90
48686;DHT22;34485;51.536;3.816;2024-02-04T03:49:15;10.10;99.90
48686;DHT22;34485;51.536;3.816;2024-02-04T03:51:41;10.10;99.90
48686;DHT22;34485;51.536;3.816;2024-02-04T03:54:07;10.10;99.90
48686;DHT22;34485;51.536;3.816;2024-02-04T03:56:32;10.20;99.90
48686;DHT22;34485;51.536;3.816;2024-02-04T03:58:58;10.20;99.90
48686;DHT22;34485;51.536;3.816;2024-02-04T04:01:24;10.20;99.90
48686;DHT22;34485;51.536;3.816;2024-02-04T04:03:50;10.20;99.90
48686;DHT22;34485;51.536;3.816;2024-02-04T04:06:15;10.20;99.90
48686;DHT22;34485;51.536;3.816;2024-02-04T04:08:41;10.20;99.90
48686;DHT22;34485;51.536;3.816;2024-02-04T04:11:10;10.20;99.90
48686;DHT22;34485;51.536;3.816;2024-02-04T04:13:37;10.30;99.90
48686;DHT22;34485;51.536;3.816;2024-02-04T04:16:03;10.20;99.90
48686;DHT22;34485;51.536;3.816;2024-02-04T04:18:29;10.20;99.90
48686;DHT22;34485;51.536;3.816;2024-02-04T04:20:55;10.20;99.90
48686;DHT22;34485;51.536;3.816;2024-02-04T04:23:21;10.20;99.90
48686;DHT22;34485;51.536;3.816;2024-02-04T04:25:47;10.20;99.90
48686;DHT22;34485;51.536;3.816;2024-02-04T04:28:12;10.10;99.90
48686;DHT22;34485;51.536;3.816;2024-02-04T04:30:38;10.10;99.90
48686;DHT22;34485;51.536;3.816;2024-02-04T04:33:04;10.10;99.90
48686;DHT22;34485;51.536;3.816;2024-02-04T04:35:29;10.10;99.90
48686;DHT22;34485;51.536;3.816;2024-02-04T04:37:55;10.10;99.90
48686;DHT22;34485;51.536;3.816;2024-02-04T04:40:21;10.00;99.90
48686;DHT22;34485;51.536;3.816;2024-02-04T04:42:47;10.00;99.90
48686;DHT22;34485;51.536;3.816;2024-02-04T04:45:12;10.00;99.90
48686;DHT22;34485;51.536;3.816;2024-02-04T04:47:39;10.00;99.90
48686;DHT22;34485;51.536;3.816;2024-02-04T04:50:05;10.00;99.90
48686;DHT22;34485;51.536;3.816;2024-02-04T04:52:31;10.00;99.90
48686;DHT22;34485;51.536;3.816;2024-02-04T04:54:57;10.00;99.90
48686;DHT22;34485;51.536;3.816;2024-02-04T04:57:23;10.10;99.90
48686;DHT22;34485;51.536;3.816;2024-02-04T04:59:48;10.10;99.90
48686;DHT22;34485;51.536;3.816;2024-02-04T05:02:14;10.10;99.90
48686;DHT22;34485;51.536;3.816;2024-02-04T05:04:43;10.00;99.90
48686;DHT22;34485;51.536;3.816;2024-02-04T05:07:10;10.10;99.90
48686;DHT22;34485;51.536;3.816;2024-02-04T05:09:36;10.00;99.90
48686;DHT22;34485;51.536;3.816;2024-02-04T05:12:03;10.10;99.90
48686;DHT22;34485;51.536;3.816;2024-02-04T05:14:28;10.10;99.90
48686;DHT22;34485;51.536;3.816;2024-02-04T05:16:54;10.10;99.90
48686;DHT22;34485;51.536;3.816;2024-02-04T05:19:20;10.10;99.90
48686;DHT22;34485;51.536;3.816;2024-02-04T05:21:45;10.10;99.90
48686;DHT22;34485;51.536;3.816;2024-02-04T05:24:11;10.10;99.90
48686;DHT22;34485;51.536;3.816;2024-02-04T05:26:37;10.10;99.90
48686;DHT22;34485;51.536;3.816;2024-02-04T05:29:02;10.10;99.90
48686;DHT22;34485;51.536;3.816;2024-02-04T05:31:28;10.10;99.90
48686;DHT22;34485;51.536;3.816;2024-02-04T05:33:53;10.00;99.90
48686;DHT22;34485;51.536;3.816;2024-02-04T05:36:19;10.10;99.90
48686;DHT22;34485;51.536;3.816;2024-02-04T05:38:45;10.10;99.90
48686;DHT22;34485;51.536;3.816;2024-02-04T05:41:11;10.10;99.90
48686;DHT22;34485;51.536;3.816;2024-02-04T05:43:38;10.20;99.90
48686;DHT22;34485;51.536;3.816;2024-02-04T05:46:04;10.20;99.90
48686;DHT22;34485;51.536;3.816;2024-02-04T05:48:29;10.20;99.90
48686;DHT22;34485;51.536;3.816;2024-02-04T05:50:55;10.10;99.90
48686;DHT22;34485;51.536;3.816;2024-02-04T05:53:21;10.10;99.90
48686;DHT22;34485;51.536;3.816;2024-02-04T05:55:46;10.10;99.90
48686;DHT22;34485;51.536;3.816;2024-02-04T05:58:12;10.20;99.90
48686;DHT22;34485;51.536;3.816;2024-02-04T06:00:40;10.10;99.90
48686;DHT22;34485;51.536;3.816;2024-02-04T06:03:06;10.10;99.90
48686;DHT22;34485;51.536;3.816;2024-02-04T06:05:32;10.10;99.90
48686;DHT22;34485;51.536;3.816;2024-02-04T06:07:57;10.10;99.90
48686;DHT22;34485;51.536;3.816;2024-02-04T06:10:23;10.10;99.90
48686;DHT22;34485;51.536;3.816;2024-02-04T06:12:49;10.10;99.90
48686;DHT22;34485;51.536;3.816;2024-02-04T06:15:16;10.20;99.90
48686;DHT22;34485;51.536;3.816;2024-02-04T06:17:41;10.20;99.90
48686;DHT22;34485;51.536;3.816;2024-02-04T06:20:07;10.20;99.90
48686;DHT22;34485;51.536;3.816;2024-02-04T06:22:36;10.20;99.90
48686;DHT22;34485;51.536;3.816;2024-02-04T06:25:05;10.30;99.90
48686;DHT22;34485;51.536;3.816;2024-02-04T06:27:31;10.30;99.90
48686;DHT22;34485;51.536;3.816;2024-02-04T06:29:57;10.30;99.90
48686;DHT22;34485;51.536;3.816;2024-02-04T06:32:23;10.30;99.90
48686;DHT22;34485;51.536;3.816;2024-02-04T06:34:50;10.30;99.90
48686;DHT22;34485;51.536;3.816;2024-02-04T06:37:16;10.30;99.90
48686;DHT22;34485;51.536;3.816;2024-02-04T06:39:42;10.30;99.90
48686;DHT22;34485;51.536;3.816;2024-02-04T06:42:08;10.30;99.90
48686;DHT22;34485;51.536;3.816;2024-02-04T06:44:34;10.30;99.90
48686;DHT22;34485;51.536;3.816;2024-02-04T06:47:00;10.40;99.90
48686;DHT22;34485;51.536;3.816;2024-02-04T06:49:25;10.40;99.90
48686;DHT22;34485;51.536;3.816;2024-02-04T06:51:52;10.40;99.90
48686;DHT22;34485;51.536;3.816;2024-02-04T06:54:22;10.40;99.90
48686;DHT22;34485;51.536;3.816;2024-02-04T06:56:48;10.40;99.90
48686;DHT22;34485;51.536;3.816;2024-02-04T06:59:13;10.40;99.90
48686;DHT22;34485;51.536;3.816;2024-02-04T07:01:39;10.40;99.90
48686;DHT22;34485;51.536;3.816;2024-02-04T07:04:05;10.40;99.90
48686;DHT22;34485;51.536;3.816;2024-02-04T07:06:30;10.40;99.90
48686;DHT22;34485;51.536;3.816;2024-02-04T07:08:56;10.40;99.90
48686;DHT22;34485;51.536;3.816;2024-02-04T07:11:22;10.40;99.90
48686;DHT22;34485;51.536;3.816;2024-02-04T07:13:47;10.30;99.90
48686;DHT22;34485;51.536;3.816;2024-02-04T07:16:13;10.30;99.90
48686;DHT22;34485;51.536;3.816;2024-02-04T07:18:39;10.40;99.90
48686;DHT22;34485;51.536;3.816;2024-02-04T07:21:05;10.30;99.90
48686;DHT22;34485;51.536;3.816;2024-02-04T07:23:30;10.30;99.90
48686;DHT22;34485;51.536;3.816;2024-02-04T07:25:56;10.30;99.90
48686;DHT22;34485;51.536;3.816;2024-02-04T07:28:22;10.30;99.90
48686;DHT22;34485;51.536;3.816;2024-02-04T07:30:47;10.30;99.90
48686;DHT22;34485;51.536;3.816;2024-02-04T07:33:13;10.30;99.90
48686;DHT22;34485;51.536;3.816;2024-02-04T07:35:39;10.30;99.90
48686;DHT22;34485;51.536;3.816;2024-02-04T07:38:05;10.30;99.90
48686;DHT22;34485;51.536;3.816;2024-02-04T07:40:30;10.30;99.90
48686;DHT22;34485;51.536;3.816;2024-02-04T07:42:56;10.30;99.90
48686;DHT22;34485;51.536;3.816;2024-02-04T07:45:22;10.20;99.90
48686;DHT22;34485;51.536;3.816;2024-02-04T07:47:48;10.20;99.90
48686;DHT22;34485;51.536;3.816;2024-02-04T07:50:14;10.20;99.90
48686;DHT22;34485;51.536;3.816;2024-02-04T07:52:39;10.20;99.90
48686;DHT22;34485;51.536;3.816;2024-02-04T07:55:05;10.20;99.90
48686;DHT22;34485;51.536;3.816;2024-02-04T07:57:31;10.10;99.90
48686;DHT22;34485;51.536;3.816;2024-02-04T07:59:57;10.10;99.90
48686;DHT22;34485;51.536;3.816;2024-02-04T08:02:22;10.10;99.90
48686;DHT22;34485;51.536;3.816;2024-02-04T08:04:48;10.10;99.90
48686;DHT22;34485;51.536;3.816;2024-02-04T08:07:14;10.10;99.90
48686;DHT22;34485;51.536;3.816;2024-02-04T08:09:40;10.10;99.90
48686;DHT22;34485;51.536;3.816;2024-02-04T08:12:05;10.10;99.90
48686;DHT22;34485;51.536;3.816;2024-02-04T08:14:31;10.10;99.90
48686;DHT22;34485;51.536;3.816;2024-02-04T08:16:57;10.10;99.90
48686;DHT22;34485;51.536;3.816;2024-02-04T08:19:22;10.10;99.90
48686;DHT22;34485;51.536;3.816;2024-02-04T08:21:48;10.20;99.90
48686;DHT22;34485;51.536;3.816;2024-02-04T08:24:14;10.20;99.90
48686;DHT22;34485;51.536;3.816;2024-02-04T08:26:39;10.20;99.90
48686;DHT22;34485;51.536;3.816;2024-02-04T08:29:05;10.20;99.90
48686;DHT22;34485;51.536;3.816;2024-02-04T08:31:32;10.30;99.90
48686;DHT22;34485;51.536;3.816;2024-02-04T08:33:59;10.30;99.90
48686;DHT22;34485;51.536;3.816;2024-02-04T08:36:25;10.30;99.90
48686;DHT22;34485;51.536;3.816;2024-02-04T08:38:50;10.40;99.90
48686;DHT22;34485;51.536;3.816;2024-02-04T08:41:16;10.40;99.90
48686;DHT22;34485;51.536;3.816;2024-02-04T08:43:42;10.40;99.90
48686;DHT22;34485;51.536;3.816;2024-02-04T08:46:07;10.50;99.90
48686;DHT22;34485;51.536;3.816;2024-02-04T08:48:33;10.50;99.90
48686;DHT22;34485;51.536;3.816;2024-02-04T08:50:59;10.50;99.90
48686;DHT22;34485;51.536;3.816;2024-02-04T08:53:25;10.50;99.90
48686;DHT22;34485;51.536;3.816;2024-02-04T08:55:51;10.60;99.90
48686;DHT22;34485;51.536;3.816;2024-02-04T08:58:16;10.60;99.90
48686;DHT22;34485;51.536;3.816;2024-02-04T09:00:42;10.60;99.90
48686;DHT22;34485;51.536;3.816;2024-02-04T09:03:07;10.60;99.90
48686;DHT22;34485;51.536;3.816;2024-02-04T09:05:33;10.60;99.90
48686;DHT22;34485;51.536;3.816;2024-02-04T09:07:59;10.60;99.90
48686;DHT22;34485;51.536;3.816;2024-02-04T09:10:25;10.60;99.90
48686;DHT22;34485;51.536;3.816;2024-02-04T09:12:50;10.70;99.90
48686;DHT22;34485;51.536;3.816;2024-02-04T09:15:16;10.60;99.90
48686;DHT22;34485;51.536;3.816;2024-02-04T09:17:42;10.60;99.90
48686;DHT22;34485;51.536;3.816;2024-02-04T09:20:08;10.60;99.90
48686;DHT22;34485;51.536;3.816;2024-02-04T09:22:34;10.60;99.90
48686;DHT22;34485;51.536;3.816;2024-02-04T09:24:59;10.60;99.90
48686;DHT22;34485;51.536;3.816;2024-02-04T09:27:25;10.70;99.90
48686;DHT22;34485;51.536;3.816;2024-02-04T09:29:51;10.70;99.90
48686;DHT22;34485;51.536;3.816;2024-02-04T09:32:17;10.70;99.90
48686;DHT22;34485;51.536;3.816;2024-02-04T09:34:43;10.80;99.90
48686;DHT22;34485;51.536;3.816;2024-02-04T09:37:09;10.90;99.90
48686;DHT22;34485;51.536;3.816;2024-02-04T09:39:34;10.90;99.90
48686;DHT22;34485;51.536;3.816;2024-02-04T09:42:00;11.00;99.90
48686;DHT22;34485;51.536;3.816;2024-02-04T09:44:26;11.10;99.90
48686;DHT22;34485;51.536;3.816;2024-02-04T09:46:53;11.10;99.90
48686;DHT22;34485;51.536;3.816;2024-02-04T09:49:19;11.10;99.90
48686;DHT22;34485;51.536;3.816;2024-02-04T09:51:46;11.20;99.90
48686;DHT22;34485;51.536;3.816;2024-02-04T09:54:15;11.20;99.90
48686;DHT22;34485;51.536;3.816;2024-02-04T09:56:42;11.30;99.90
48686;DHT22;34485;51.536;3.816;2024-02-04T09:59:08;11.30;99.90
48686;DHT22;34485;51.536;3.816;2024-02-04T10:01:35;11.30;99.90
48686;DHT22;34485;51.536;3.816;2024-02-04T10:04:01;11.40;99.90
48686;DHT22;34485;51.536;3.816;2024-02-04T10:06:27;11.40;99.90
48686;DHT22;34485;51.536;3.816;2024-02-04T10:08:53;11.40;99.90
48686;DHT22;34485;51.536;3.816;2024-02-04T10:11:19;11.40;99.90
48686;DHT22;34485;51.536;3.816;2024-02-04T10:13:48;11.50;99.90
48686;DHT22;34485;51.536;3.816;2024-02-04T10:16:15;11.50;99.90
48686;DHT22;34485;51.536;3.816;2024-02-04T10:18:43;11.50;99.90
48686;DHT22;34485;51.536;3.816;2024-02-04T10:21:19;11.50;99.90
48686;DHT22;34485;51.536;3.816;2024-02-04T10:23:49;11.50;99.90
48686;DHT22;34485;51.536;3.816;2024-02-04T10:26:15;11.60;99.90
48686;DHT22;34485;51.536;3.816;2024-02-04T10:28:42;11.60;99.90
48686;DHT22;34485;51.536;3.816;2024-02-04T10:31:09;11.60;99.90
48686;DHT22;34485;51.536;3.816;2024-02-04T10:33:36;11.70;99.90
48686;DHT22;34485;51.536;3.816;2024-02-04T10:36:02;11.70;99.90
48686;DHT22;34485;51.536;3.816;2024-02-04T10:38:29;11.80;99.90
48686;DHT22;34485;51.536;3.816;2024-02-04T10:40:55;11.80;99.90
48686;DHT22;34485;51.536;3.816;2024-02-04T10:43:21;11.80;99.90
48686;DHT22;34485;51.536;3.816;2024-02-04T10:45:47;11.90;99.90
48686;DHT22;34485;51.536;3.816;2024-02-04T10:48:15;11.90;99.90
48686;DHT22;34485;51.536;3.816;2024-02-04T10:50:47;11.90;99.90
48686;DHT22;34485;51.536;3.816;2024-02-04T10:53:14;11.90;99.90
48686;DHT22;34485;51.536;3.816;2024-02-04T10:55:43;12.00;99.90
48686;DHT22;34485;51.536;3.816;2024-02-04T10:58:12;12.10;99.90
48686;DHT22;34485;51.536;3.816;2024-02-04T11:00:40;12.20;99.90
48686;DHT22;34485;51.536;3.816;2024-02-04T11:03:06;12.30;99.90
48686;DHT22;34485;51.536;3.816;2024-02-04T11:05:34;12.30;99.90
48686;DHT22;34485;51.536;3.816;2024-02-04T11:08:02;12.40;99.90
48686;DHT22;34485;51.536;3.816;2024-02-04T11:10:30;12.50;99.90
48686;DHT22;34485;51.536;3.816;2024-02-04T11:12:58;12.60;99.90
48686;DHT22;34485;51.536;3.816;2024-02-04T11:15:30;12.60;99.90
48686;DHT22;34485;51.536;3.816;2024-02-04T11:21:31;12.70;99.90
48686;DHT22;34485;51.536;3.816;2024-02-04T11:24:13;12.90;99.90
48686;DHT22;34485;51.536;3.816;2024-02-04T11:26:44;13.10;99.90
48686;DHT22;34485;51.536;3.816;2024-02-04T11:29:10;13.10;99.90
48686;DHT22;34485;51.536;3.816;2024-02-04T11:31:39;13.20;99.90
48686;DHT22;34485;51.536;3.816;2024-02-04T11:34:05;13.20;99.90
48686;DHT22;34485;51.536;3.816;2024-02-04T11:36:38;13.10;99.90
48686;DHT22;34485;51.536;3.816;2024-02-04T11:39:17;13.20;99.90
48686;DHT22;34485;51.536;3.816;2024-02-04T11:41:47;13.10;99.90
48686;DHT22;34485;51.536;3.816;2024-02-04T11:44:23;13.00;99.90
48686;DHT22;34485;51.536;3.816;2024-02-04T11:46:50;13.00;99.90
48686;DHT22;34485;51.536;3.816;2024-02-04T11:49:17;12.90;99.90
48686;DHT22;34485;51.536;3.816;2024-02-04T11:51:47;12.90;99.90
48686;DHT22;34485;51.536;3.816;2024-02-04T11:54:15;12.80;99.90
48686;DHT22;34485;51.536;3.816;2024-02-04T11:56:42;12.80;99.90
48686;DHT22;34485;51.536;3.816;2024-02-04T11:59:08;12.80;99.90
48686;DHT22;34485;51.536;3.816;2024-02-04T12:01:35;12.90;99.90
48686;DHT22;34485;51.536;3.816;2024-02-04T12:04:15;12.90;99.90
48686;DHT22;34485;51.536;3.816;2024-02-04T12:06:41;12.80;99.90
48686;DHT22;34485;51.536;3.816;2024-02-04T12:09:08;12.80;99.90
48686;DHT22;34485;51.536;3.816;2024-02-04T12:11:36;12.80;99.90
48686;DHT22;34485;51.536;3.816;2024-02-04T12:14:04;12.80;99.90
48686;DHT22;34485;51.536;3.816;2024-02-04T12:16:31;12.80;99.90
48686;DHT22;34485;51.536;3.816;2024-02-04T12:18:58;12.80;99.90
48686;DHT22;34485;51.536;3.816;2024-02-04T12:21:25;12.80;99.90
48686;DHT22;34485;51.536;3.816;2024-02-04T12:23:51;12.80;99.90
48686;DHT22;34485;51.536;3.816;2024-02-04T12:26:17;12.70;99.90
48686;DHT22;34485;51.536;3.816;2024-02-04T12:28:43;12.70;99.90
48686;DHT22;34485;51.536;3.816;2024-02-04T12:33:52;12.70;99.90
48686;DHT22;34485;51.536;3.816;2024-02-04T12:36:19;12.70;99.90
48686;DHT22;34485;51.536;3.816;2024-02-04T12:38:52;12.80;99.90
48686;DHT22;34485;51.536;3.816;2024-02-04T12:41:17;12.80;99.90
48686;DHT22;34485;51.536;3.816;2024-02-04T12:43:49;12.90;99.90
48686;DHT22;34485;51.536;3.816;2024-02-04T12:46:15;12.80;99.90
48686;DHT22;34485;51.536;3.816;2024-02-04T12:48:40;12.90;99.90
48686;DHT22;34485;51.536;3.816;2024-02-04T12:51:06;12.90;99.90
48686;DHT22;34485;51.536;3.816;2024-02-04T12:53:32;12.80;99.90
48686;DHT22;34485;51.536;3.816;2024-02-04T12:55:58;12.80;99.90
48686;DHT22;34485;51.536;3.816;2024-02-04T12:58:25;12.80;99.90
48686;DHT22;34485;51.536;3.816;2024-02-04T13:01:00;12.90;99.90
48686;DHT22;34485;51.536;3.816;2024-02-04T13:03:26;12.90;99.90
48686;DHT22;34485;51.536;3.816;2024-02-04T13:05:57;13.00;99.90
48686;DHT22;34485;51.536;3.816;2024-02-04T13:08:26;13.00;99.90
48686;DHT22;34485;51.536;3.816;2024-02-04T13:10:57;13.00;99.90
48686;DHT22;34485;51.536;3.816;2024-02-04T13:13:23;13.00;99.90
48686;DHT22;34485;51.536;3.816;2024-02-04T13:15:53;13.00;99.90
48686;DHT22;34485;51.536;3.816;2024-02-04T13:18:19;13.00;99.90
48686;DHT22;34485;51.536;3.816;2024-02-04T13:20:45;13.00;99.90
48686;DHT22;34485;51.536;3.816;2024-02-04T13:23:11;13.00;99.90
48686;DHT22;34485;51.536;3.816;2024-02-04T13:25:37;13.00;99.90
48686;DHT22;34485;51.536;3.816;2024-02-04T13:28:03;12.90;99.90
48686;DHT22;34485;51.536;3.816;2024-02-04T13:30:30;12.90;99.90
48686;DHT22;34485;51.536;3.816;2024-02-04T13:32:56;12.90;99.90
48686;DHT22;34485;51.536;3.816;2024-02-04T13:35:23;12.90;99.90
48686;DHT22;34485;51.536;3.816;2024-02-04T13:37:49;12.80;99.90
48686;DHT22;34485;51.536;3.816;2024-02-04T13:40:21;12.90;99.90
48686;DHT22;34485;51.536;3.816;2024-02-04T13:42:48;12.90;99.90
48686;DHT22;34485;51.536;3.816;2024-02-04T13:45:14;12.90;99.90
48686;DHT22;34485;51.536;3.816;2024-02-04T13:47:41;12.90;99.90
48686;DHT22;34485;51.536;3.816;2024-02-04T13:50:07;12.90;99.90
48686;DHT22;34485;51.536;3.816;2024-02-04T13:52:36;12.80;99.90
48686;DHT22;34485;51.536;3.816;2024-02-04T13:55:03;12.80;99.90
48686;DHT22;34485;51.536;3.816;2024-02-04T13:57:35;12.80;99.90
48686;DHT22;34485;51.536;3.816;2024-02-04T14:00:01;12.80;99.90
48686;DHT22;34485;51.536;3.816;2024-02-04T14:02:29;12.70;99.90
48686;DHT22;34485;51.536;3.816;2024-02-04T14:04:56;12.70;99.90
48686;DHT22;34485;51.536;3.816;2024-02-04T14:07:22;12.70;99.90
48686;DHT22;34485;51.536;3.816;2024-02-04T14:09:47;12.70;99.90
48686;DHT22;34485;51.536;3.816;2024-02-04T14:12:13;12.60;99.90
48686;DHT22;34485;51.536;3.816;2024-02-04T14:14:39;12.60;99.90
48686;DHT22;34485;51.536;3.816;2024-02-04T14:17:05;12.60;99.90
48686;DHT22;34485;51.536;3.816;2024-02-04T14:19:31;12.60;99.90
48686;DHT22;34485;51.536;3.816;2024-02-04T14:21:56;12.60;99.90
48686;DHT22;34485;51.536;3.816;2024-02-04T14:24:22;12.60;99.90
48686;DHT22;34485;51.536;3.816;2024-02-04T14:26:48;12.50;99.90
48686;DHT22;34485;51.536;3.816;2024-02-04T14:29:14;12.50;99.90
48686;DHT22;34485;51.536;3.816;2024-02-04T14:31:39;12.40;99.90
48686;DHT22;34485;51.536;3.816;2024-02-04T14:34:05;12.40;99.90
48686;DHT22;34485;51.536;3.816;2024-02-04T14:36:31;12.40;99.90
48686;DHT22;34485;51.536;3.816;2024-02-04T14:38:56;12.30;99.90
48686;DHT22;34485;51.536;3.816;2024-02-04T14:41:23;12.30;99.90
48686;DHT22;34485;51.536;3.816;2024-02-04T14:43:49;12.30;99.90
48686;DHT22;34485;51.536;3.816;2024-02-04T14:46:14;12.30;99.90
48686;DHT22;34485;51.536;3.816;2024-02-04T14:48:40;12.30;99.90
48686;DHT22;34485;51.536;3.816;2024-02-04T14:51:06;12.30;99.90
48686;DHT22;34485;51.536;3.816;2024-02-04T14:53:32;12.30;99.90
48686;DHT22;34485;51.536;3.816;2024-02-04T14:55:57;12.30;99.90
48686;DHT22;34485;51.536;3.816;2024-02-04T14:58:23;12.20;99.90
48686;DHT22;34485;51.536;3.816;2024-02-04T15:00:49;12.20;99.90
48686;DHT22;34485;51.536;3.816;2024-02-04T15:03:15;12.10;99.90
48686;DHT22;34485;51.536;3.816;2024-02-04T15:05:44;12.10;99.90
48686;DHT22;34485;51.536;3.816;2024-02-04T15:08:09;12.00;99.90
48686;DHT22;34485;51.536;3.816;2024-02-04T15:10:35;12.00;99.90
48686;DHT22;34485;51.536;3.816;2024-02-04T15:13:01;12.00;99.90
48686;DHT22;34485;51.536;3.816;2024-02-04T15:15:27;11.90;99.90
48686;DHT22;34485;51.536;3.816;2024-02-04T15:17:53;11.80;99.90
48686;DHT22;34485;51.536;3.816;2024-02-04T15:20:19;11.80;99.90
48686;DHT22;34485;51.536;3.816;2024-02-04T15:22:46;11.80;99.90
48686;DHT22;34485;51.536;3.816;2024-02-04T15:25:13;11.70;99.90
48686;DHT22;34485;51.536;3.816;2024-02-04T15:27:42;11.70;99.90
48686;DHT22;34485;51.536;3.816;2024-02-04T15:30:10;11.70;99.90
48686;DHT22;34485;51.536;3.816;2024-02-04T15:32:37;11.70;99.90
48686;DHT22;34485;51.536;3.816;2024-02-04T15:35:03;11.70;99.90
48686;DHT22;34485;51.536;3.816;2024-02-04T15:37:29;11.70;99.90
48686;DHT22;34485;51.536;3.816;2024-02-04T15:39:55;11.70;99.90
48686;DHT22;34485;51.536;3.816;2024-02-04T15:42:22;11.60;99.90
48686;DHT22;34485;51.536;3.816;2024-02-04T15:44:48;11.60;99.90
48686;DHT22;34485;51.536;3.816;2024-02-04T15:47:15;11.60;99.90
48686;DHT22;34485;51.536;3.816;2024-02-04T15:49:41;11.60;99.90
48686;DHT22;34485;51.536;3.816;2024-02-04T15:52:08;11.60;99.90
48686;DHT22;34485;51.536;3.816;2024-02-04T15:54:34;11.60;99.90